createdAt,value
2024-01-30T00:01:18.970Z,52.13
2024-01-30T00:03:45.804Z,51.69
2024-01-30T00:06:13.252Z,51.35
2024-01-30T00:08:39.966Z,51.21
2024-01-30T00:11:08.803Z,50.76
2024-01-30T00:13:35.466Z,51.05
2024-01-30T00:16:02.253Z,50.20
2024-01-30T00:18:29.025Z,50.11
2024-01-30T00:20:55.759Z,49.29
2024-01-30T00:23:22.495Z,50.37
2024-01-30T00:25:49.139Z,50.93
2024-01-30T00:28:16.091Z,50.93
2024-01-30T00:30:42.852Z,51.59
2024-01-30T00:33:10.560Z,52.05
2024-01-30T00:35:37.745Z,52.74
2024-01-30T00:38:04.631Z,53.19
2024-01-30T00:40:31.365Z,54.02
2024-01-30T00:42:58.134Z,54.25
2024-01-30T00:45:24.912Z,54.10
2024-01-30T00:47:51.631Z,54.19
2024-01-30T00:50:18.408Z,54.29
2024-01-30T00:52:46.420Z,53.68
2024-01-30T00:55:14.061Z,54.48
2024-01-30T00:57:42.816Z,54.10
2024-01-30T01:00:12.206Z,53.85
2024-01-30T01:02:40.257Z,53.64
2024-01-30T01:05:07.437Z,53.28
2024-01-30T01:07:34.158Z,52.76
2024-01-30T01:10:00.933Z,53.01
2024-01-30T01:12:27.668Z,52.61
2024-01-30T01:14:54.390Z,53.11
2024-01-30T01:17:21.170Z,53.01
2024-01-30T01:19:48.028Z,52.94
2024-01-30T01:22:14.784Z,53.01
2024-01-30T01:24:41.505Z,52.53
2024-01-30T01:27:08.272Z,52.41
2024-01-30T01:29:34.927Z,52.14
2024-01-30T01:32:01.759Z,51.69
2024-01-30T01:34:30.563Z,51.78
2024-01-30T01:36:57.845Z,51.43
2024-01-30T01:39:24.959Z,51.30
2024-01-30T01:41:51.710Z,50.64
2024-01-30T01:44:19.644Z,50.43
2024-01-30T01:46:46.984Z,50.19
2024-01-30T01:49:15.032Z,50.18
2024-01-30T01:51:43.350Z,49.70
2024-01-30T01:54:10.205Z,49.87
2024-01-30T01:56:37.062Z,50.03
2024-01-30T01:59:09.303Z,50.38
2024-01-30T02:01:39.709Z,51.39
2024-01-30T02:04:08.862Z,52.29
2024-01-30T02:06:36.599Z,54.32
2024-01-30T02:09:03.300Z,54.23
2024-01-30T02:11:30.120Z,54.02
2024-01-30T02:13:56.901Z,54.72
2024-01-30T02:16:23.941Z,55.15
2024-01-30T02:18:50.705Z,55.65
2024-01-30T02:21:20.369Z,55.19
2024-01-30T02:23:51.430Z,55.41
2024-01-30T02:26:18.127Z,55.38
2024-01-30T02:28:44.763Z,55.24
2024-01-30T02:31:11.552Z,56.00
2024-01-30T02:33:38.302Z,55.89
2024-01-30T02:36:05.309Z,55.90
2024-01-30T02:38:31.995Z,55.40
2024-01-30T02:40:58.720Z,56.05
2024-01-30T02:43:25.389Z,55.78
2024-01-30T02:45:52.173Z,55.89
2024-01-30T02:48:18.885Z,54.58
2024-01-30T02:50:45.651Z,54.74
2024-01-30T02:53:12.422Z,54.08
2024-01-30T02:55:39.320Z,54.13
2024-01-30T02:58:06.063Z,54.25
2024-01-30T03:00:32.777Z,54.61
2024-01-30T03:02:59.485Z,54.52
2024-01-30T03:05:26.177Z,54.50
2024-01-30T03:07:53.033Z,54.24
2024-01-30T03:10:19.985Z,53.78
2024-01-30T03:12:46.731Z,53.52
2024-01-30T03:15:13.948Z,53.86
2024-01-30T03:17:40.699Z,54.06
2024-01-30T03:20:08.048Z,54.07
2024-01-30T03:22:34.735Z,54.72
2024-01-30T03:25:01.898Z,54.93
2024-01-30T03:27:28.787Z,54.90
2024-01-30T03:29:55.481Z,54.58
2024-01-30T03:32:22.418Z,54.08
2024-01-30T03:34:49.488Z,53.90
2024-01-30T03:37:16.293Z,53.51
2024-01-30T03:39:43.134Z,53.85
2024-01-30T03:42:09.827Z,54.21
2024-01-30T03:44:36.550Z,55.30
2024-01-30T03:47:03.311Z,56.42
2024-01-30T03:49:30.117Z,56.59
2024-01-30T03:51:57.104Z,56.74
2024-01-30T03:54:23.972Z,56.87
2024-01-30T03:56:50.853Z,57.72
2024-01-30T03:59:18.958Z,57.26
2024-01-30T04:01:48.133Z,56.38
2024-01-30T04:04:15.355Z,56.05
2024-01-30T04:06:42.385Z,55.41
2024-01-30T04:09:09.201Z,54.65
2024-01-30T04:11:36.430Z,54.64
2024-01-30T04:14:03.420Z,54.58
2024-01-30T04:16:30.143Z,55.08
2024-01-30T04:18:57.515Z,55.37
2024-01-30T04:21:24.356Z,55.34
2024-01-30T04:23:52.915Z,56.29
2024-01-30T04:26:19.846Z,55.93
2024-01-30T04:28:46.849Z,55.37
2024-01-30T04:31:13.685Z,54.71
2024-01-30T04:33:40.716Z,54.56
2024-01-30T04:36:11.281Z,53.90
2024-01-30T04:38:40.153Z,53.75
2024-01-30T04:41:07.079Z,52.96
2024-01-30T04:43:34.286Z,53.29
2024-01-30T04:46:01.240Z,53.57
2024-01-30T04:48:28.278Z,54.57
2024-01-30T04:50:57.326Z,55.46
2024-01-30T04:53:24.292Z,56.11
2024-01-30T04:55:51.374Z,57.68
2024-01-30T04:58:18.426Z,59.47
2024-01-30T05:00:45.453Z,60.32
2024-01-30T05:03:12.525Z,60.30
2024-01-30T05:05:39.533Z,60.81
2024-01-30T05:08:06.639Z,61.16
2024-01-30T05:10:33.474Z,61.78
2024-01-30T05:13:00.349Z,62.44
2024-01-30T05:15:27.668Z,61.61
2024-01-30T05:17:54.592Z,61.66
2024-01-30T05:20:22.032Z,60.75
2024-01-30T05:22:49.004Z,60.48
2024-01-30T05:25:16.338Z,60.31
2024-01-30T05:27:43.406Z,59.55
2024-01-30T05:30:10.896Z,59.43
2024-01-30T05:32:38.107Z,59.59
2024-01-30T05:35:05.403Z,59.73
2024-01-30T05:37:32.257Z,60.06
2024-01-30T05:39:59.355Z,61.11
2024-01-30T05:42:27.340Z,60.85
2024-01-30T05:44:54.465Z,60.68
2024-01-30T05:47:21.566Z,60.25
2024-01-30T05:49:48.693Z,60.23
2024-01-30T05:52:16.800Z,59.88
2024-01-30T05:54:44.011Z,61.07
2024-01-30T05:57:10.985Z,61.48
2024-01-30T05:59:41.827Z,60.46
2024-01-30T06:02:09.518Z,59.92
2024-01-30T06:04:36.818Z,60.23
2024-01-30T06:07:04.264Z,60.32
2024-01-30T06:09:31.446Z,60.46
2024-01-30T06:11:58.803Z,61.31
2024-01-30T06:14:25.976Z,61.11
2024-01-30T06:16:53.257Z,60.50
2024-01-30T06:19:20.773Z,60.25
2024-01-30T06:21:47.889Z,58.71
2024-01-30T06:24:14.968Z,59.04
2024-01-30T06:26:42.339Z,60.14
2024-01-30T06:29:09.651Z,59.42
2024-01-30T06:31:45.560Z,59.23
2024-01-30T06:34:13.504Z,59.85
2024-01-30T06:36:40.497Z,60.40
2024-01-30T06:39:08.399Z,60.35
2024-01-30T06:41:35.732Z,59.23
2024-01-30T06:44:07.545Z,59.40
2024-01-30T06:46:34.711Z,59.20
2024-01-30T06:49:01.822Z,59.59
2024-01-30T06:51:28.790Z,59.49
2024-01-30T06:53:55.682Z,60.02
2024-01-30T06:56:22.676Z,60.24
2024-01-30T06:58:50.217Z,59.60
2024-01-30T07:01:18.088Z,59.96
2024-01-30T07:03:45.163Z,59.11
2024-01-30T07:06:12.210Z,58.99
2024-01-30T07:08:42.310Z,59.17
2024-01-30T07:11:09.344Z,58.93
2024-01-30T07:13:36.592Z,58.27
2024-01-30T07:16:03.811Z,58.36
2024-01-30T07:18:30.889Z,58.49
2024-01-30T07:20:57.943Z,58.70
2024-01-30T07:23:25.220Z,58.97
2024-01-30T07:25:52.240Z,60.01
2024-01-30T07:28:20.108Z,60.00
2024-01-30T07:30:49.423Z,59.23
2024-01-30T07:33:16.969Z,60.06
2024-01-30T07:35:44.784Z,60.15
2024-01-30T07:38:11.868Z,59.50
2024-01-30T07:40:39.264Z,59.63
2024-01-30T07:43:06.522Z,59.32
2024-01-30T07:45:36.499Z,60.55
2024-01-30T07:48:04.094Z,59.67
2024-01-30T07:50:31.358Z,59.64
2024-01-30T07:52:58.366Z,59.89
2024-01-30T07:55:28.859Z,59.55
2024-01-30T07:57:56.934Z,59.45
2024-01-30T08:00:24.297Z,59.68
2024-01-30T08:02:51.474Z,60.57
2024-01-30T08:05:18.632Z,60.24
2024-01-30T08:07:47.441Z,60.39
2024-01-30T08:10:14.800Z,60.64
2024-01-30T08:12:42.228Z,61.09
2024-01-30T08:15:09.759Z,61.49
2024-01-30T08:17:37.061Z,61.64
2024-01-30T08:20:05.968Z,60.49
2024-01-30T08:22:33.449Z,61.41
2024-01-30T08:25:03.363Z,61.55
2024-01-30T08:27:30.547Z,61.08
2024-01-30T08:29:57.957Z,61.87
2024-01-30T08:32:25.151Z,62.97
2024-01-30T08:34:52.652Z,63.50
2024-01-30T08:37:20.084Z,63.41
2024-01-30T08:39:47.586Z,62.68
2024-01-30T08:42:14.967Z,62.23
2024-01-30T08:44:42.057Z,61.89
2024-01-30T08:47:09.072Z,60.80
2024-01-30T08:49:36.247Z,61.75
2024-01-30T08:52:04.461Z,60.83
2024-01-30T08:54:31.486Z,61.15
2024-01-30T08:56:59.860Z,60.48
2024-01-30T08:59:26.955Z,60.48
2024-01-30T09:02:03.807Z,59.55
2024-01-30T09:04:39.142Z,58.11
2024-01-30T09:07:10.306Z,58.33
2024-01-30T09:09:40.758Z,58.41
2024-01-30T09:12:10.661Z,58.54
2024-01-30T09:14:39.095Z,58.40
2024-01-30T09:17:06.159Z,58.62
2024-01-30T09:19:33.721Z,57.65
2024-01-30T09:22:01.418Z,57.61
2024-01-30T09:24:29.020Z,57.44
2024-01-30T09:26:56.541Z,58.14
2024-01-30T09:29:23.825Z,58.52
2024-01-30T09:31:50.868Z,57.28
2024-01-30T09:34:18.122Z,57.45
2024-01-30T09:36:45.885Z,57.85
2024-01-30T09:39:13.211Z,57.21
2024-01-30T09:41:49.698Z,56.19
2024-01-30T09:44:22.164Z,57.04
2024-01-30T09:46:50.025Z,56.66
2024-01-30T09:49:21.171Z,57.15
2024-01-30T09:54:50.715Z,55.62
2024-01-30T09:57:17.524Z,55.11
2024-01-30T09:59:45.147Z,53.92
2024-01-30T10:02:11.968Z,54.60
2024-01-30T10:04:38.673Z,53.11
2024-01-30T10:07:05.709Z,52.32
2024-01-30T10:09:35.881Z,51.64
2024-01-30T10:12:04.813Z,52.98
2024-01-30T10:14:31.655Z,51.74
2024-01-30T10:16:59.184Z,51.13
2024-01-30T10:19:26.294Z,50.03
2024-01-30T10:21:53.121Z,50.13
2024-01-30T10:24:19.872Z,50.40
2024-01-30T10:26:46.551Z,50.81
2024-01-30T10:29:13.507Z,50.80
2024-01-30T10:31:40.484Z,50.56
2024-01-30T10:34:12.516Z,50.66
2024-01-30T10:36:51.261Z,50.29
2024-01-30T10:39:19.133Z,49.24
2024-01-30T10:41:49.688Z,49.68
2024-01-30T10:44:20.671Z,50.31
2024-01-30T10:46:54.544Z,51.06
2024-01-30T10:49:22.847Z,52.38
2024-01-30T10:51:50.935Z,51.30
2024-01-30T10:54:19.031Z,51.08
2024-01-30T10:56:45.879Z,51.33
2024-01-30T10:59:14.327Z,51.86
2024-01-30T11:01:42.114Z,51.80
2024-01-30T11:04:09.068Z,51.27
2024-01-30T11:06:43.201Z,52.38
2024-01-30T11:09:13.681Z,52.56
2024-01-30T11:11:50.330Z,51.75
2024-01-30T11:14:17.169Z,51.10
2024-01-30T11:16:45.973Z,51.81
2024-01-30T11:19:13.553Z,51.94
2024-01-30T11:21:42.900Z,52.27
2024-01-30T11:24:09.713Z,51.74
2024-01-30T11:26:36.609Z,51.32
2024-01-30T11:29:09.204Z,51.88
2024-01-30T11:31:36.037Z,51.72
2024-01-30T11:34:02.857Z,51.82
2024-01-30T11:36:30.278Z,52.93
2024-01-30T11:38:57.594Z,53.53
2024-01-30T11:41:24.688Z,52.35
2024-01-30T11:43:54.813Z,52.17
2024-01-30T11:46:21.973Z,51.46
2024-01-30T11:48:48.898Z,51.36
2024-01-30T11:51:16.033Z,51.99
2024-01-30T11:53:43.030Z,51.50
2024-01-30T11:56:09.915Z,50.92
2024-01-30T11:58:36.609Z,50.36
2024-01-30T12:01:03.402Z,50.41
2024-01-30T12:03:30.179Z,50.11
2024-01-30T12:06:00.718Z,49.96
2024-01-30T12:08:28.602Z,49.58
2024-01-30T12:11:06.536Z,48.99
2024-01-30T12:13:33.980Z,48.68
2024-01-30T12:16:02.287Z,48.32
2024-01-30T12:18:29.266Z,48.25
2024-01-30T12:21:00.959Z,48.90
2024-01-30T12:23:30.936Z,48.69
2024-01-30T12:25:58.304Z,48.78
2024-01-30T12:28:25.066Z,48.41
2024-01-30T12:30:55.303Z,49.52
2024-01-30T12:33:22.336Z,49.29
2024-01-30T12:35:55.850Z,49.67
2024-01-30T12:38:29.415Z,49.72
2024-01-30T12:40:57.240Z,50.79
2024-01-30T12:43:34.585Z,50.83
2024-01-30T12:46:05.376Z,51.15
2024-01-30T12:48:32.222Z,51.90
2024-01-30T12:50:59.078Z,50.71
2024-01-30T12:53:25.845Z,50.57
2024-01-30T12:55:52.616Z,50.14
2024-01-30T12:58:19.679Z,49.92
2024-01-30T13:00:46.544Z,49.57
2024-01-30T13:03:13.714Z,49.05
2024-01-30T13:05:40.410Z,49.33
2024-01-30T13:08:07.322Z,49.19
2024-01-30T13:10:34.090Z,48.84
2024-01-30T13:13:00.934Z,49.07
2024-01-30T13:15:27.699Z,48.95
2024-01-30T13:17:55.599Z,48.83
2024-01-30T13:20:23.037Z,48.36
2024-01-30T13:22:50.953Z,48.17
2024-01-30T13:25:18.021Z,48.07
2024-01-30T13:27:44.804Z,47.58
2024-01-30T13:30:11.973Z,47.76
2024-01-30T13:32:39.108Z,48.17
2024-01-30T13:35:06.214Z,48.68
2024-01-30T13:37:33.104Z,48.01
2024-01-30T13:40:00.592Z,47.60
2024-01-30T13:42:28.591Z,48.79
2024-01-30T13:44:55.484Z,48.99
2024-01-30T13:47:22.770Z,48.27
2024-01-30T13:49:49.832Z,48.54
2024-01-30T13:52:16.723Z,48.52
2024-01-30T13:54:43.466Z,48.19
2024-01-30T13:57:11.204Z,48.73
2024-01-30T13:59:39.761Z,49.11
2024-01-30T14:02:07.994Z,49.70
2024-01-30T14:04:34.859Z,50.12
2024-01-30T14:07:05.284Z,50.83
2024-01-30T14:09:33.613Z,50.22
2024-01-30T14:12:00.513Z,50.20
2024-01-30T14:14:27.423Z,50.30
2024-01-30T14:16:54.155Z,49.69
2024-01-30T14:19:20.902Z,49.32
2024-01-30T14:21:47.620Z,49.30
2024-01-30T14:24:14.384Z,49.96
2024-01-30T14:26:41.090Z,50.39
2024-01-30T14:29:08.204Z,50.22
2024-01-30T14:31:34.916Z,51.67
2024-01-30T14:34:02.004Z,51.50
2024-01-30T14:36:29.481Z,52.07
2024-01-30T14:38:56.564Z,51.63
2024-01-30T14:41:23.557Z,51.70
2024-01-30T14:43:50.839Z,52.65
2024-01-30T14:46:17.772Z,53.31
2024-01-30T14:48:44.897Z,52.88
2024-01-30T14:51:11.717Z,53.49
2024-01-30T14:53:38.378Z,53.75
2024-01-30T14:56:05.802Z,54.53
2024-01-30T14:58:33.079Z,54.36
2024-01-30T15:00:59.936Z,53.45
2024-01-30T15:03:29.809Z,53.04
2024-01-30T15:05:56.816Z,54.28
2024-01-30T15:08:23.907Z,55.16
2024-01-30T15:10:52.216Z,55.24
2024-01-30T15:13:19.040Z,55.69
2024-01-30T15:15:45.857Z,56.06
2024-01-30T15:18:12.777Z,55.82
2024-01-30T15:20:39.695Z,56.04
2024-01-30T15:23:06.403Z,55.49
2024-01-30T15:25:33.190Z,55.58
2024-01-30T15:28:00.016Z,55.74
2024-01-30T15:30:26.951Z,54.61
2024-01-30T15:32:54.063Z,53.78
2024-01-30T15:35:20.869Z,54.41
2024-01-30T15:37:47.937Z,54.19
2024-01-30T15:40:14.785Z,55.46
2024-01-30T15:42:41.558Z,54.88
2024-01-30T15:45:08.673Z,55.63
2024-01-30T15:47:35.705Z,56.18
2024-01-30T15:50:02.749Z,56.53
2024-01-30T15:52:29.962Z,56.60
2024-01-30T15:54:57.146Z,56.37
2024-01-30T15:57:26.339Z,56.86
2024-01-30T15:59:53.779Z,56.36
2024-01-30T16:02:21.722Z,56.67
2024-01-30T16:04:48.722Z,56.73
2024-01-30T16:07:15.629Z,56.93
2024-01-30T16:09:43.241Z,56.79
2024-01-30T16:12:10.047Z,56.30
2024-01-30T16:14:37.515Z,57.06
2024-01-30T16:17:04.788Z,57.06
2024-01-30T16:19:33.744Z,57.62
2024-01-30T16:22:01.871Z,58.99
2024-01-30T16:24:28.756Z,58.84
2024-01-30T16:27:14.393Z,58.34
2024-01-30T16:29:42.388Z,58.69
2024-01-30T16:32:09.108Z,57.53
2024-01-30T16:34:36.019Z,58.68
2024-01-30T16:37:02.990Z,57.85
2024-01-30T16:39:30.033Z,57.52
2024-01-30T16:41:57.022Z,57.10
2024-01-30T16:44:23.727Z,57.09
2024-01-30T16:46:52.572Z,57.17
2024-01-30T16:49:19.935Z,56.64
2024-01-30T16:51:46.764Z,56.64
2024-01-30T16:54:13.616Z,56.28
2024-01-30T16:56:40.654Z,55.97
2024-01-30T16:59:07.335Z,56.44
2024-01-30T17:01:52.916Z,55.28
2024-01-30T17:04:39.856Z,55.33
2024-01-30T17:07:25.138Z,54.85
2024-01-30T17:10:14.386Z,54.76
2024-01-30T17:13:01.233Z,54.16
2024-01-30T17:15:46.738Z,54.06
2024-01-30T17:18:16.872Z,55.76
2024-01-30T17:20:43.706Z,56.88
2024-01-30T17:23:11.665Z,57.39
2024-01-30T17:25:39.546Z,56.75
2024-01-30T17:28:06.655Z,56.56
2024-01-30T17:30:33.564Z,56.19
2024-01-30T17:33:20.892Z,55.19
2024-01-30T17:35:47.957Z,56.65
2024-01-30T17:38:14.765Z,56.40
2024-01-30T17:41:05.894Z,56.44
2024-01-30T17:43:38.919Z,56.72
2024-01-30T17:46:07.758Z,56.67
2024-01-30T17:48:35.167Z,56.35
2024-01-30T17:51:22.981Z,56.93
2024-01-30T17:53:50.536Z,57.59
2024-01-30T17:56:18.888Z,56.92
2024-01-30T17:58:46.933Z,57.85
2024-01-30T18:01:14.053Z,58.05
2024-01-30T18:03:41.434Z,58.35
2024-01-30T18:06:08.270Z,58.71
2024-01-30T18:08:35.611Z,57.75
2024-01-30T18:11:02.625Z,58.87
2024-01-30T18:13:29.515Z,59.60
2024-01-30T18:15:56.628Z,59.75
2024-01-30T18:18:30.328Z,58.87
2024-01-30T18:20:58.629Z,58.79
2024-01-30T18:23:25.657Z,59.37
2024-01-30T18:26:00.597Z,59.24
2024-01-30T18:28:28.579Z,59.01
2024-01-30T18:30:57.737Z,58.96
2024-01-30T18:33:25.242Z,58.53
2024-01-30T18:35:52.163Z,58.73
2024-01-30T18:38:19.018Z,58.44
2024-01-30T18:40:46.207Z,58.64
2024-01-30T18:43:13.180Z,57.53
2024-01-30T18:45:40.005Z,57.71
2024-01-30T18:48:07.059Z,57.02
2024-01-30T18:50:34.574Z,56.81
2024-01-30T18:53:01.323Z,56.90
2024-01-30T18:55:28.079Z,57.69
2024-01-30T18:57:54.864Z,57.71
2024-01-30T19:00:21.980Z,57.90
2024-01-30T19:02:49.188Z,57.44
2024-01-30T19:05:16.070Z,57.81
2024-01-30T19:07:42.864Z,57.70
2024-01-30T19:10:11.125Z,57.57
2024-01-30T19:12:40.524Z,58.07
2024-01-30T19:15:10.495Z,56.80
2024-01-30T19:20:05.376Z,58.51
2024-01-30T19:22:32.357Z,58.98
2024-01-30T19:25:02.059Z,58.61
2024-01-30T19:27:29.098Z,60.21
2024-01-30T19:29:56.104Z,60.86
2024-01-30T19:32:22.998Z,59.52
2024-01-30T19:34:50.638Z,60.73
2024-01-30T19:37:17.518Z,60.93
2024-01-30T19:39:45.057Z,60.61
2024-01-30T19:42:11.977Z,61.42
2024-01-30T19:44:40.047Z,61.11
2024-01-30T19:47:10.379Z,61.26
2024-01-30T19:52:05.199Z,60.91
2024-01-30T19:54:33.912Z,62.30
2024-01-30T19:57:01.750Z,60.68
2024-01-30T19:59:29.286Z,60.37
2024-01-30T20:01:56.265Z,60.80
2024-01-30T20:04:24.743Z,60.49
2024-01-30T20:06:52.038Z,61.38
2024-01-30T20:09:18.826Z,60.78
2024-01-30T20:11:45.645Z,59.58
2024-01-30T20:14:12.543Z,60.83
2024-01-30T20:16:40.480Z,59.90
2024-01-30T20:19:10.803Z,60.59
2024-01-30T20:21:38.205Z,61.18
2024-01-30T20:24:05.709Z,61.18
2024-01-30T20:26:33.103Z,60.10
2024-01-30T20:29:00.549Z,59.79
2024-01-30T20:31:29.181Z,59.56
2024-01-30T20:33:56.159Z,58.81
2024-01-30T20:36:23.457Z,59.53
2024-01-30T20:38:50.194Z,60.52
2024-01-30T20:41:17.022Z,58.95
2024-01-30T20:43:44.396Z,59.58
2024-01-30T20:46:14.143Z,60.07
2024-01-30T20:48:41.714Z,59.00
2024-01-30T20:51:08.518Z,61.01
2024-01-30T20:53:35.324Z,60.22
2024-01-30T20:56:02.128Z,60.89
2024-01-30T20:58:31.915Z,61.23
2024-01-30T21:01:02.356Z,63.63
2024-01-30T21:03:32.472Z,63.37
2024-01-30T21:06:00.673Z,65.25
2024-01-30T21:08:29.194Z,65.14
2024-01-30T21:10:58.839Z,65.28
2024-01-30T21:13:29.240Z,63.95
2024-01-30T21:15:56.871Z,63.05
2024-01-30T21:18:23.617Z,63.79
2024-01-30T21:20:54.279Z,64.92
2024-01-30T21:23:21.141Z,66.12
2024-01-30T21:25:48.166Z,67.02
2024-01-30T21:28:14.988Z,67.55
2024-01-30T21:30:42.208Z,67.82
2024-01-30T21:33:09.208Z,68.07
2024-01-30T21:35:36.050Z,67.12
2024-01-30T21:38:04.967Z,66.14
2024-01-30T21:40:31.799Z,65.63
2024-01-30T21:42:58.829Z,66.49
2024-01-30T21:45:26.146Z,66.31
2024-01-30T21:47:53.602Z,66.74
2024-01-30T21:50:21.210Z,67.11
2024-01-30T21:52:48.125Z,66.31
2024-01-30T21:55:15.105Z,66.43
2024-01-30T21:57:42.075Z,67.17
2024-01-30T22:00:10.700Z,65.42
2024-01-30T22:02:38.076Z,65.11
2024-01-30T22:05:06.093Z,66.63
2024-01-30T22:07:33.278Z,65.71
2024-01-30T22:10:00.599Z,65.57
2024-01-30T22:12:27.626Z,65.83
2024-01-30T22:14:54.474Z,65.81
2024-01-30T22:17:21.297Z,66.88
2024-01-30T22:19:48.429Z,66.04
2024-01-30T22:22:15.573Z,66.40
2024-01-30T22:24:42.416Z,67.26
2024-01-30T22:27:09.310Z,68.24
2024-01-30T22:29:36.144Z,67.70
2024-01-30T22:32:05.524Z,68.28
2024-01-30T22:34:32.407Z,67.75
2024-01-30T22:36:59.271Z,67.94
2024-01-30T22:39:26.534Z,68.19
2024-01-30T22:41:53.647Z,68.06
2024-01-30T22:44:21.884Z,69.50
2024-01-30T22:46:48.783Z,68.07
2024-01-30T22:49:15.778Z,68.91
2024-01-30T22:51:44.147Z,68.76
2024-01-30T22:54:11.016Z,68.46
2024-01-30T22:56:37.782Z,66.89
2024-01-30T22:59:04.708Z,68.50
2024-01-30T23:01:32.708Z,67.38
2024-01-30T23:03:59.702Z,67.95
2024-01-30T23:06:26.744Z,67.87
2024-01-30T23:08:53.809Z,66.55
2024-01-30T23:11:20.785Z,65.63
2024-01-30T23:13:47.696Z,66.19
2024-01-30T23:16:14.611Z,65.65
2024-01-30T23:18:41.794Z,66.17
2024-01-30T23:21:08.738Z,65.02
2024-01-30T23:23:37.692Z,64.76
2024-01-30T23:26:05.312Z,63.65
2024-01-30T23:28:32.489Z,63.47
2024-01-30T23:30:59.370Z,64.88
2024-01-30T23:33:26.420Z,64.82
2024-01-30T23:35:53.302Z,65.22
2024-01-30T23:38:19.986Z,65.25
2024-01-30T23:40:46.914Z,65.30
2024-01-30T23:43:13.879Z,64.98
2024-01-30T23:45:40.678Z,64.44
2024-01-30T23:48:07.989Z,65.43
2024-01-30T23:50:35.468Z,66.31
2024-01-30T23:53:02.276Z,65.32
2024-01-30T23:55:29.169Z,65.16
2024-01-30T23:57:56.174Z,65.08
